sensor_id;sensor_type;location;lat;lon;timestamp;P1;P2;P0
23240;PMS7003;11789;53.482;9.862;2023-04-01T00:01:18;7.75;5.75;4.00
23240;PMS7003;11789;53.482;9.862;2023-04-01T00:03:44;10.50;6.00;4.00
23240;PMS7003;11789;53.482;9.862;2023-04-01T00:06:13;10.75;7.50;4.75
23240;PMS7003;11789;53.482;9.862;2023-04-01T00:08:40;5.75;5.75;4.00
23240;PMS7003;11789;53.482;9.862;2023-04-01T00:11:06;9.75;6.50;5.00
23240;PMS7003;11789;53.482;9.862;2023-04-01T00:13:31;5.75;5.75;4.75
23240;PMS7003;11789;53.482;9.862;2023-04-01T00:15:57;7.00;5.50;3.75
23240;PMS7003;11789;53.482;9.862;2023-04-01T00:18:23;6.75;6.75;6.00
23240;PMS7003;11789;53.482;9.862;2023-04-01T00:20:50;8.00;6.75;4.50
23240;PMS7003;11789;53.482;9.862;2023-04-01T00:23:17;9.00;7.25;5.00
23240;PMS7003;11789;53.482;9.862;2023-04-01T00:25:44;8.00;6.25;4.50
23240;PMS7003;11789;53.482;9.862;2023-04-01T00:28:12;7.00;6.00;4.00
23240;PMS7003;11789;53.482;9.862;2023-04-01T00:30:39;8.75;7.50;5.25
23240;PMS7003;11789;53.482;9.862;2023-04-01T00:33:05;6.25;6.00;5.00
23240;PMS7003;11789;53.482;9.862;2023-04-01T00:35:30;7.25;6.00;4.25
23240;PMS7003;11789;53.482;9.862;2023-04-01T00:37:57;5.75;5.75;5.00
23240;PMS7003;11789;53.482;9.862;2023-04-01T00:40:31;8.50;6.75;6.00
23240;PMS7003;11789;53.482;9.862;2023-04-01T00:42:58;8.25;7.00;5.25
23240;PMS7003;11789;53.482;9.862;2023-04-01T00:45:28;7.00;7.00;5.00
23240;PMS7003;11789;53.482;9.862;2023-04-01T00:47:58;7.25;7.25;5.75
23240;PMS7003;11789;53.482;9.862;2023-04-01T00:50:26;6.25;6.25;5.00
23240;PMS7003;11789;53.482;9.862;2023-04-01T00:52:55;9.25;6.00;5.00
23240;PMS7003;11789;53.482;9.862;2023-04-01T00:55:21;6.00;6.00;4.00
23240;PMS7003;11789;53.482;9.862;2023-04-01T00:57:48;6.25;5.25;5.00
23240;PMS7003;11789;53.482;9.862;2023-04-01T01:00:17;11.00;8.75;6.00
23240;PMS7003;11789;53.482;9.862;2023-04-01T01:02:44;9.00;8.00;6.00
23240;PMS7003;11789;53.482;9.862;2023-04-01T01:05:14;7.75;7.75;5.25
23240;PMS7003;11789;53.482;9.862;2023-04-01T01:08:01;8.00;8.00;5.50
23240;PMS7003;11789;53.482;9.862;2023-04-01T01:10:38;7.50;7.50;5.00
23240;PMS7003;11789;53.482;9.862;2023-04-01T01:13:08;9.00;9.00;6.25
23240;PMS7003;11789;53.482;9.862;2023-04-01T01:15:53;8.50;8.25;6.00
23240;PMS7003;11789;53.482;9.862;2023-04-01T01:23:38;16.75;10.25;6.75
23240;PMS7003;11789;53.482;9.862;2023-04-01T01:26:36;12.25;10.25;6.75
23240;PMS7003;11789;53.482;9.862;2023-04-01T01:37:23;8.50;8.50;7.00
23240;PMS7003;11789;53.482;9.862;2023-04-01T01:39:53;10.75;10.75;7.00
23240;PMS7003;11789;53.482;9.862;2023-04-01T01:42:31;12.75;11.00;7.00
23240;PMS7003;11789;53.482;9.862;2023-04-01T01:45:03;9.75;9.75;6.50
23240;PMS7003;11789;53.482;9.862;2023-04-01T01:47:31;10.00;8.00;6.25
23240;PMS7003;11789;53.482;9.862;2023-04-01T01:49:59;10.50;8.75;6.00
23240;PMS7003;11789;53.482;9.862;2023-04-01T01:52:29;9.75;9.75;6.25
23240;PMS7003;11789;53.482;9.862;2023-04-01T01:54:56;10.00;10.00;7.75
23240;PMS7003;11789;53.482;9.862;2023-04-01T01:57:23;9.00;9.00;6.50
23240;PMS7003;11789;53.482;9.862;2023-04-01T02:00:02;10.00;10.00;7.00
23240;PMS7003;11789;53.482;9.862;2023-04-01T02:02:39;10.75;9.00;6.00
23240;PMS7003;11789;53.482;9.862;2023-04-01T02:05:07;10.75;10.75;7.00
23240;PMS7003;11789;53.482;9.862;2023-04-01T02:07:38;11.00;10.25;6.50
23240;PMS7003;11789;53.482;9.862;2023-04-01T02:10:07;13.75;11.50;6.75
23240;PMS7003;11789;53.482;9.862;2023-04-01T02:12:33;12.00;10.00;7.50
23240;PMS7003;11789;53.482;9.862;2023-04-01T02:15:06;11.50;10.25;7.00
23240;PMS7003;11789;53.482;9.862;2023-04-01T02:17:35;12.75;12.75;9.00
23240;PMS7003;11789;53.482;9.862;2023-04-01T02:20:09;13.00;10.50;8.00
23240;PMS7003;11789;53.482;9.862;2023-04-01T02:22:44;12.00;10.75;7.00
23240;PMS7003;11789;53.482;9.862;2023-04-01T02:25:15;9.75;9.75;7.25
23240;PMS7003;11789;53.482;9.862;2023-04-01T02:27:45;15.50;10.00;6.25
23240;PMS7003;11789;53.482;9.862;2023-04-01T02:30:12;12.00;10.00;7.00
23240;PMS7003;11789;53.482;9.862;2023-04-01T02:32:40;13.75;12.00;8.00
23240;PMS7003;11789;53.482;9.862;2023-04-01T02:35:10;10.25;10.25;6.75
23240;PMS7003;11789;53.482;9.862;2023-04-01T02:37:38;11.00;11.00;7.00
23240;PMS7003;11789;53.482;9.862;2023-04-01T02:40:07;16.50;11.75;7.00
23240;PMS7003;11789;53.482;9.862;2023-04-01T02:42:35;11.00;11.00;8.00
23240;PMS7003;11789;53.482;9.862;2023-04-01T02:45:01;12.25;12.25;8.00
23240;PMS7003;11789;53.482;9.862;2023-04-01T02:47:27;12.00;11.25;7.75
23240;PMS7003;11789;53.482;9.862;2023-04-01T02:49:53;9.75;9.25;6.00
23240;PMS7003;11789;53.482;9.862;2023-04-01T02:52:27;12.50;12.00;8.25
23240;PMS7003;11789;53.482;9.862;2023-04-01T02:54:53;14.50;14.50;8.25
23240;PMS7003;11789;53.482;9.862;2023-04-01T02:57:19;13.25;13.25;8.25
23240;PMS7003;11789;53.482;9.862;2023-04-01T02:59:45;12.25;11.25;8.25
23240;PMS7003;11789;53.482;9.862;2023-04-01T03:02:10;14.00;11.75;8.75
23240;PMS7003;11789;53.482;9.862;2023-04-01T03:04:36;10.25;10.25;8.00
23240;PMS7003;11789;53.482;9.862;2023-04-01T03:07:01;13.25;12.75;9.00
23240;PMS7003;11789;53.482;9.862;2023-04-01T03:09:27;15.25;11.75;9.00
23240;PMS7003;11789;53.482;9.862;2023-04-01T03:11:53;12.25;12.25;8.00
23240;PMS7003;11789;53.482;9.862;2023-04-01T03:14:19;11.75;11.00;8.00
23240;PMS7003;11789;53.482;9.862;2023-04-01T03:16:44;13.75;11.00;8.00
23240;PMS7003;11789;53.482;9.862;2023-04-01T03:19:10;16.50;11.50;8.25
23240;PMS7003;11789;53.482;9.862;2023-04-01T03:21:35;14.25;12.25;8.50
23240;PMS7003;11789;53.482;9.862;2023-04-01T03:24:01;10.75;10.75;8.00
23240;PMS7003;11789;53.482;9.862;2023-04-01T03:26:26;17.75;13.75;8.00
23240;PMS7003;11789;53.482;9.862;2023-04-01T03:28:52;12.25;12.25;8.75
23240;PMS7003;11789;53.482;9.862;2023-04-01T03:31:18;15.00;13.50;10.25
23240;PMS7003;11789;53.482;9.862;2023-04-01T03:33:43;12.50;12.50;8.00
23240;PMS7003;11789;53.482;9.862;2023-04-01T03:36:09;13.50;13.50;10.00
23240;PMS7003;11789;53.482;9.862;2023-04-01T03:38:36;16.50;14.50;9.00
23240;PMS7003;11789;53.482;9.862;2023-04-01T03:41:02;13.50;12.00;9.00
23240;PMS7003;11789;53.482;9.862;2023-04-01T03:43:27;13.75;12.75;9.00
23240;PMS7003;11789;53.482;9.862;2023-04-01T03:45:53;18.25;14.25;9.75
23240;PMS7003;11789;53.482;9.862;2023-04-01T03:48:19;13.25;12.50;8.00
23240;PMS7003;11789;53.482;9.862;2023-04-01T03:50:46;13.00;13.00;9.00
23240;PMS7003;11789;53.482;9.862;2023-04-01T03:53:12;12.50;12.50;7.25
23240;PMS7003;11789;53.482;9.862;2023-04-01T03:55:37;13.25;13.25;9.75
23240;PMS7003;11789;53.482;9.862;2023-04-01T03:58:04;14.00;12.50;8.25
23240;PMS7003;11789;53.482;9.862;2023-04-01T04:00:30;14.00;12.00;8.00
23240;PMS7003;11789;53.482;9.862;2023-04-01T04:02:56;14.75;12.25;8.75
23240;PMS7003;11789;53.482;9.862;2023-04-01T04:05:23;12.25;11.00;7.50
23240;PMS7003;11789;53.482;9.862;2023-04-01T04:07:49;13.75;12.00;9.25
23240;PMS7003;11789;53.482;9.862;2023-04-01T04:10:16;16.75;12.50;9.00
23240;PMS7003;11789;53.482;9.862;2023-04-01T04:12:41;14.50;14.50;10.50
23240;PMS7003;11789;53.482;9.862;2023-04-01T04:15:07;13.25;13.25;9.50
23240;PMS7003;11789;53.482;9.862;2023-04-01T04:17:33;17.75;12.00;9.00
23240;PMS7003;11789;53.482;9.862;2023-04-01T04:19:58;19.25;19.25;9.25
23240;PMS7003;11789;53.482;9.862;2023-04-01T04:22:23;15.25;13.75;8.25
23240;PMS7003;11789;53.482;9.862;2023-04-01T04:24:49;18.00;15.00;11.00
23240;PMS7003;11789;53.482;9.862;2023-04-01T04:27:15;18.25;17.00;10.50
23240;PMS7003;11789;53.482;9.862;2023-04-01T04:29:40;18.00;17.25;11.00
23240;PMS7003;11789;53.482;9.862;2023-04-01T04:32:06;15.00;15.00;9.00
23240;PMS7003;11789;53.482;9.862;2023-04-01T04:34:32;17.00;15.00;9.00
23240;PMS7003;11789;53.482;9.862;2023-04-01T04:36:57;18.50;14.50;10.00
23240;PMS7003;11789;53.482;9.862;2023-04-01T04:39:23;14.25;14.00;9.25
23240;PMS7003;11789;53.482;9.862;2023-04-01T04:41:48;19.25;16.75;9.50
23240;PMS7003;11789;53.482;9.862;2023-04-01T04:44:14;19.25;15.75;10.00
23240;PMS7003;11789;53.482;9.862;2023-04-01T04:46:40;19.25;16.25;12.25
23240;PMS7003;11789;53.482;9.862;2023-04-01T04:49:06;19.25;16.50;10.00
23240;PMS7003;11789;53.482;9.862;2023-04-01T04:51:32;13.25;12.50;8.50
23240;PMS7003;11789;53.482;9.862;2023-04-01T04:54:00;16.00;16.00;9.00
23240;PMS7003;11789;53.482;9.862;2023-04-01T04:56:29;18.50;15.25;11.00
23240;PMS7003;11789;53.482;9.862;2023-04-01T04:58:55;14.25;13.50;10.00
23240;PMS7003;11789;53.482;9.862;2023-04-01T05:01:21;13.75;13.75;9.00
23240;PMS7003;11789;53.482;9.862;2023-04-01T05:03:46;14.50;12.50;9.00
23240;PMS7003;11789;53.482;9.862;2023-04-01T05:06:12;19.25;17.75;10.00
23240;PMS7003;11789;53.482;9.862;2023-04-01T05:08:40;17.50;15.75;10.00
23240;PMS7003;11789;53.482;9.862;2023-04-01T05:11:07;18.50;17.00;9.75
23240;PMS7003;11789;53.482;9.862;2023-04-01T05:13:36;15.75;14.00;9.00
23240;PMS7003;11789;53.482;9.862;2023-04-01T05:16:02;13.25;10.75;6.00
23240;PMS7003;11789;53.482;9.862;2023-04-01T05:18:27;14.25;12.75;8.00
23240;PMS7003;11789;53.482;9.862;2023-04-01T05:20:53;16.00;14.00;10.00
23240;PMS7003;11789;53.482;9.862;2023-04-01T05:23:20;17.25;14.50;10.00
23240;PMS7003;11789;53.482;9.862;2023-04-01T05:25:47;14.25;14.25;9.25
23240;PMS7003;11789;53.482;9.862;2023-04-01T05:28:13;17.25;15.75;8.50
23240;PMS7003;11789;53.482;9.862;2023-04-01T05:30:40;14.00;13.00;9.00
23240;PMS7003;11789;53.482;9.862;2023-04-01T05:33:07;19.00;17.50;11.75
23240;PMS7003;11789;53.482;9.862;2023-04-01T05:35:33;16.00;14.50;9.50
23240;PMS7003;11789;53.482;9.862;2023-04-01T05:37:58;16.50;14.50;10.25
23240;PMS7003;11789;53.482;9.862;2023-04-01T05:40:24;16.00;12.50;8.75
23240;PMS7003;11789;53.482;9.862;2023-04-01T05:42:49;16.50;14.25;8.25
23240;PMS7003;11789;53.482;9.862;2023-04-01T05:45:15;13.50;12.50;8.50
23240;PMS7003;11789;53.482;9.862;2023-04-01T05:47:41;14.50;11.75;8.00
23240;PMS7003;11789;53.482;9.862;2023-04-01T05:50:07;11.25;10.25;8.00
23240;PMS7003;11789;53.482;9.862;2023-04-01T05:52:35;12.25;12.25;8.50
23240;PMS7003;11789;53.482;9.862;2023-04-01T05:55:01;17.50;15.00;9.50
23240;PMS7003;11789;53.482;9.862;2023-04-01T05:57:27;14.50;12.75;8.00
23240;PMS7003;11789;53.482;9.862;2023-04-01T05:59:53;12.25;12.25;8.00
23240;PMS7003;11789;53.482;9.862;2023-04-01T06:02:18;13.50;12.50;8.50
23240;PMS7003;11789;53.482;9.862;2023-04-01T06:04:44;12.00;10.25;7.00
23240;PMS7003;11789;53.482;9.862;2023-04-01T06:07:14;13.25;10.50;7.00
23240;PMS7003;11789;53.482;9.862;2023-04-01T06:09:41;11.50;9.75;6.50
23240;PMS7003;11789;53.482;9.862;2023-04-01T06:12:14;9.75;9.75;7.50
23240;PMS7003;11789;53.482;9.862;2023-04-01T06:17:26;9.00;9.00;6.25
23240;PMS7003;11789;53.482;9.862;2023-04-01T06:26:00;7.00;5.75;4.25
23240;PMS7003;11789;53.482;9.862;2023-04-01T06:31:11;3.75;3.00;3.00
23240;PMS7003;11789;53.482;9.862;2023-04-01T06:44:52;2.00;2.00;1.00
23240;PMS7003;11789;53.482;9.862;2023-04-01T06:47:32;1.75;1.00;1.00
23240;PMS7003;11789;53.482;9.862;2023-04-01T06:58:21;0.00;0.00;0.00
23240;PMS7003;11789;53.482;9.862;2023-04-01T07:00:59;1.00;1.00;0.75
23240;PMS7003;11789;53.482;9.862;2023-04-01T07:06:05;1.00;1.00;1.00
23240;PMS7003;11789;53.482;9.862;2023-04-01T07:08:38;0.00;0.00;0.00
23240;PMS7003;11789;53.482;9.862;2023-04-01T07:11:12;1.00;1.00;1.00
23240;PMS7003;11789;53.482;9.862;2023-04-01T07:13:53;3.00;2.00;1.75
23240;PMS7003;11789;53.482;9.862;2023-04-01T07:16:39;2.00;2.00;1.75
23240;PMS7003;11789;53.482;9.862;2023-04-01T07:21:55;2.00;2.00;2.00
23240;PMS7003;11789;53.482;9.862;2023-04-01T07:24:27;1.50;1.50;1.00
23240;PMS7003;11789;53.482;9.862;2023-04-01T07:26:57;1.00;1.00;1.00
23240;PMS7003;11789;53.482;9.862;2023-04-01T07:29:24;1.00;1.00;0.00
23240;PMS7003;11789;53.482;9.862;2023-04-01T07:31:58;0.00;0.00;0.00
23240;PMS7003;11789;53.482;9.862;2023-04-01T07:34:30;0.25;0.25;0.25
23240;PMS7003;11789;53.482;9.862;2023-04-01T07:37:23;0.50;0.50;0.00
23240;PMS7003;11789;53.482;9.862;2023-04-01T07:48:33;0.50;0.50;0.50
23240;PMS7003;11789;53.482;9.862;2023-04-01T07:51:16;0.50;0.50;0.50
23240;PMS7003;11789;53.482;9.862;2023-04-01T07:59:47;1.00;1.00;1.00
23240;PMS7003;11789;53.482;9.862;2023-04-01T08:05:14;1.75;0.50;0.50
23240;PMS7003;11789;53.482;9.862;2023-04-01T08:07:59;0.00;0.00;0.00
23240;PMS7003;11789;53.482;9.862;2023-04-01T08:16:01;1.25;1.00;1.00
23240;PMS7003;11789;53.482;9.862;2023-04-01T08:19:13;0.00;0.00;0.00
23240;PMS7003;11789;53.482;9.862;2023-04-01T08:21:52;0.00;0.00;0.00
23240;PMS7003;11789;53.482;9.862;2023-04-01T08:24:33;0.00;0.00;0.00
23240;PMS7003;11789;53.482;9.862;2023-04-01T08:27:05;0.50;0.50;0.00
23240;PMS7003;11789;53.482;9.862;2023-04-01T08:29:41;1.00;1.00;1.00
23240;PMS7003;11789;53.482;9.862;2023-04-01T08:32:18;0.25;0.25;0.25
23240;PMS7003;11789;53.482;9.862;2023-04-01T08:38:05;1.00;1.00;0.75
23240;PMS7003;11789;53.482;9.862;2023-04-01T08:40:58;1.00;1.00;1.00
23240;PMS7003;11789;53.482;9.862;2023-04-01T08:49:36;0.00;0.00;0.00
23240;PMS7003;11789;53.482;9.862;2023-04-01T08:52:11;0.00;0.00;0.00
23240;PMS7003;11789;53.482;9.862;2023-04-01T08:54:56;0.00;0.00;0.00
23240;PMS7003;11789;53.482;9.862;2023-04-01T09:00:18;0.00;0.00;0.00
23240;PMS7003;11789;53.482;9.862;2023-04-01T09:05:36;5.25;4.50;3.00
23240;PMS7003;11789;53.482;9.862;2023-04-01T09:10:59;2.00;2.00;1.00
23240;PMS7003;11789;53.482;9.862;2023-04-01T09:25:16;1.00;1.00;1.00
23240;PMS7003;11789;53.482;9.862;2023-04-01T09:27:27;0.00;0.00;0.00
23240;PMS7003;11789;53.482;9.862;2023-04-01T09:40:54;0.00;0.00;0.00
23240;PMS7003;11789;53.482;9.862;2023-04-01T09:43:23;0.00;0.00;0.00
23240;PMS7003;11789;53.482;9.862;2023-04-01T09:53:46;0.00;0.00;0.00
23240;PMS7003;11789;53.482;9.862;2023-04-01T10:19:55;0.00;0.00;0.00
23240;PMS7003;11789;53.482;9.862;2023-04-01T10:22:40;0.00;0.00;0.00
23240;PMS7003;11789;53.482;9.862;2023-04-01T10:28:51;2.00;0.00;0.00
23240;PMS7003;11789;53.482;9.862;2023-04-01T10:34:13;0.00;0.00;0.00
23240;PMS7003;11789;53.482;9.862;2023-04-01T10:40:02;1.00;0.00;0.00
23240;PMS7003;11789;53.482;9.862;2023-04-01T10:43:13;1.00;1.00;0.75
23240;PMS7003;11789;53.482;9.862;2023-04-01T11:05:56;1.00;1.00;1.00
23240;PMS7003;11789;53.482;9.862;2023-04-01T11:08:41;0.75;0.75;0.75
23240;PMS7003;11789;53.482;9.862;2023-04-01T11:17:23;0.00;0.00;0.00
23240;PMS7003;11789;53.482;9.862;2023-04-01T11:35:46;1.50;1.50;1.25
23240;PMS7003;11789;53.482;9.862;2023-04-01T11:40:51;0.00;0.00;0.00
23240;PMS7003;11789;53.482;9.862;2023-04-01T11:43:44;1.50;1.50;1.00
23240;PMS7003;11789;53.482;9.862;2023-04-01T11:46:24;0.50;0.50;0.00
23240;PMS7003;11789;53.482;9.862;2023-04-01T12:00:39;1.00;1.00;1.00
23240;PMS7003;11789;53.482;9.862;2023-04-01T12:03:59;2.00;2.00;1.50
23240;PMS7003;11789;53.482;9.862;2023-04-01T12:15:24;2.00;2.00;1.75
23240;PMS7003;11789;53.482;9.862;2023-04-01T12:17:57;4.50;2.00;1.50
23240;PMS7003;11789;53.482;9.862;2023-04-01T12:20:39;4.75;4.00;3.00
23240;PMS7003;11789;53.482;9.862;2023-04-01T12:34:49;3.00;2.50;2.00
23240;PMS7003;11789;53.482;9.862;2023-04-01T12:37:36;4.75;4.75;3.00
23240;PMS7003;11789;53.482;9.862;2023-04-01T12:51:22;4.00;4.00;3.75
23240;PMS7003;11789;53.482;9.862;2023-04-01T12:59:53;6.50;4.00;3.50
23240;PMS7003;11789;53.482;9.862;2023-04-01T13:08:52;3.25;3.25;3.00
23240;PMS7003;11789;53.482;9.862;2023-04-01T13:17:27;6.75;3.25;3.00
23240;PMS7003;11789;53.482;9.862;2023-04-01T13:20:03;5.50;5.00;4.00
23240;PMS7003;11789;53.482;9.862;2023-04-01T13:25:26;5.00;5.00;3.75
23240;PMS7003;11789;53.482;9.862;2023-04-01T13:28:20;3.75;3.75;3.00
23240;PMS7003;11789;53.482;9.862;2023-04-01T13:40:01;8.00;5.00;4.50
23240;PMS7003;11789;53.482;9.862;2023-04-01T13:42:45;7.75;7.75;5.00
23240;PMS7003;11789;53.482;9.862;2023-04-01T13:45:22;5.00;5.00;4.00
23240;PMS7003;11789;53.482;9.862;2023-04-01T13:47:55;4.00;3.75;3.00
23240;PMS7003;11789;53.482;9.862;2023-04-01T13:50:55;7.25;7.25;4.75
23240;PMS7003;11789;53.482;9.862;2023-04-01T13:59:24;4.00;4.00;2.50
23240;PMS7003;11789;53.482;9.862;2023-04-01T14:15:41;4.75;4.75;4.00
23240;PMS7003;11789;53.482;9.862;2023-04-01T14:26:22;7.25;7.00;4.25
23240;PMS7003;11789;53.482;9.862;2023-04-01T14:43:08;9.50;6.25;4.75
23240;PMS7003;11789;53.482;9.862;2023-04-01T14:51:42;9.25;8.25;5.00
23240;PMS7003;11789;53.482;9.862;2023-04-01T14:56:43;8.00;8.00;5.50
23240;PMS7003;11789;53.482;9.862;2023-04-01T15:10:24;9.00;7.75;4.75
23240;PMS7003;11789;53.482;9.862;2023-04-01T15:13:15;10.75;9.50;5.00
23240;PMS7003;11789;53.482;9.862;2023-04-01T15:18:56;10.50;9.75;7.50
23240;PMS7003;11789;53.482;9.862;2023-04-01T15:38:50;8.50;8.25;7.00
23240;PMS7003;11789;53.482;9.862;2023-04-01T15:46:59;9.00;7.00;5.00
23240;PMS7003;11789;53.482;9.862;2023-04-01T15:49:46;9.00;9.00;7.00
23240;PMS7003;11789;53.482;9.862;2023-04-01T16:00:31;10.00;9.75;7.00
23240;PMS7003;11789;53.482;9.862;2023-04-01T16:05:55;9.75;9.00;5.00
23240;PMS7003;11789;53.482;9.862;2023-04-01T16:11:53;8.25;6.50;4.75
23240;PMS7003;11789;53.482;9.862;2023-04-01T16:22:40;9.00;9.00;5.00
23240;PMS7003;11789;53.482;9.862;2023-04-01T16:28:13;10.00;9.50;8.00
23240;PMS7003;11789;53.482;9.862;2023-04-01T16:37:43;18.00;12.00;8.00
23240;PMS7003;11789;53.482;9.862;2023-04-01T16:39:52;10.75;10.75;7.25
23240;PMS7003;11789;53.482;9.862;2023-04-01T16:45:21;12.00;9.50;7.25
23240;PMS7003;11789;53.482;9.862;2023-04-01T16:53:36;14.00;14.00;8.33
23240;PMS7003;11789;53.482;9.862;2023-04-01T16:56:15;11.50;9.75;7.50
23240;PMS7003;11789;53.482;9.862;2023-04-01T17:01:51;10.75;10.75;7.00
23240;PMS7003;11789;53.482;9.862;2023-04-01T17:04:23;10.25;8.50;6.50
23240;PMS7003;11789;53.482;9.862;2023-04-01T17:07:03;11.00;10.00;6.25
23240;PMS7003;11789;53.482;9.862;2023-04-01T17:12:23;13.25;11.25;9.00
23240;PMS7003;11789;53.482;9.862;2023-04-01T17:15:04;14.00;12.75;8.75
23240;PMS7003;11789;53.482;9.862;2023-04-01T17:17:48;8.00;8.00;6.33
23240;PMS7003;11789;53.482;9.862;2023-04-01T17:20:40;12.67;12.67;10.00
23240;PMS7003;11789;53.482;9.862;2023-04-01T17:28:46;7.75;6.75;4.00
23240;PMS7003;11789;53.482;9.862;2023-04-01T17:48:15;9.00;9.00;7.00
23240;PMS7003;11789;53.482;9.862;2023-04-01T17:53:33;17.00;13.00;8.00
23240;PMS7003;11789;53.482;9.862;2023-04-01T17:59:03;6.67;6.67;6.00
23240;PMS7003;11789;53.482;9.862;2023-04-01T18:02:24;11.33;8.67;7.00
23240;PMS7003;11789;53.482;9.862;2023-04-01T18:10:54;13.75;10.25;7.00
23240;PMS7003;11789;53.482;9.862;2023-04-01T18:21:46;14.50;11.75;8.00
23240;PMS7003;11789;53.482;9.862;2023-04-01T18:27:06;10.50;7.75;6.50
23240;PMS7003;11789;53.482;9.862;2023-04-01T18:35:45;8.75;8.75;7.00
23240;PMS7003;11789;53.482;9.862;2023-04-01T18:38:16;4.00;4.00;3.00
23240;PMS7003;11789;53.482;9.862;2023-04-01T18:40:52;8.00;8.00;7.00
23240;PMS7003;11789;53.482;9.862;2023-04-01T18:46:16;11.33;9.00;7.00
23240;PMS7003;11789;53.482;9.862;2023-04-01T18:52:02;11.67;11.67;8.00
23240;PMS7003;11789;53.482;9.862;2023-04-01T19:00:26;12.67;10.67;7.67
23240;PMS7003;11789;53.482;9.862;2023-04-01T19:03:02;8.33;8.33;6.00
23240;PMS7003;11789;53.482;9.862;2023-04-01T19:05:36;14.67;11.67;7.67
23240;PMS7003;11789;53.482;9.862;2023-04-01T19:10:59;10.00;10.00;8.00
23240;PMS7003;11789;53.482;9.862;2023-04-01T19:18:43;10.25;7.25;6.75
23240;PMS7003;11789;53.482;9.862;2023-04-01T19:21:41;12.00;12.00;9.00
23240;PMS7003;11789;53.482;9.862;2023-04-01T19:33:16;11.67;10.33;7.00
23240;PMS7003;11789;53.482;9.862;2023-04-01T19:35:59;12.67;12.67;9.00
23240;PMS7003;11789;53.482;9.862;2023-04-01T19:38:39;14.00;12.00;8.00
23240;PMS7003;11789;53.482;9.862;2023-04-01T19:44:11;8.33;8.33;6.33
23240;PMS7003;11789;53.482;9.862;2023-04-01T19:47:12;11.75;11.75;8.25
23240;PMS7003;11789;53.482;9.862;2023-04-01T19:52:39;12.00;12.00;8.25
23240;PMS7003;11789;53.482;9.862;2023-04-01T19:57:39;10.67;10.67;7.33
23240;PMS7003;11789;53.482;9.862;2023-04-01T20:00:14;8.25;6.75;6.00
23240;PMS7003;11789;53.482;9.862;2023-04-01T20:08:33;7.00;4.67;4.00
23240;PMS7003;11789;53.482;9.862;2023-04-01T20:17:23;6.75;6.25;4.00
23240;PMS7003;11789;53.482;9.862;2023-04-01T20:20:00;8.00;8.00;6.00
23240;PMS7003;11789;53.482;9.862;2023-04-01T20:47:35;8.00;6.00;6.00
23240;PMS7003;11789;53.482;9.862;2023-04-01T20:55:56;10.67;6.67;5.00
23240;PMS7003;11789;53.482;9.862;2023-04-01T21:04:30;6.00;6.00;5.00
23240;PMS7003;11789;53.482;9.862;2023-04-01T21:12:45;3.67;3.67;3.00
23240;PMS7003;11789;53.482;9.862;2023-04-01T21:36:58;3.00;3.00;3.00
23240;PMS7003;11789;53.482;9.862;2023-04-01T21:39:59;4.33;4.33;3.00
23240;PMS7003;11789;53.482;9.862;2023-04-01T21:45:50;2.00;2.00;2.00
23240;PMS7003;11789;53.482;9.862;2023-04-01T21:51:12;5.67;3.00;2.67
23240;PMS7003;11789;53.482;9.862;2023-04-01T22:06:56;5.67;3.00;2.00
23240;PMS7003;11789;53.482;9.862;2023-04-01T22:12:23;2.00;2.00;1.00
23240;PMS7003;11789;53.482;9.862;2023-04-01T22:15:05;3.00;3.00;2.00
23240;PMS7003;11789;53.482;9.862;2023-04-01T22:17:45;3.00;1.33;1.00
23240;PMS7003;11789;53.482;9.862;2023-04-01T22:25:51;1.00;1.00;1.00
23240;PMS7003;11789;53.482;9.862;2023-04-01T22:28:27;3.00;3.00;2.00
23240;PMS7003;11789;53.482;9.862;2023-04-01T22:30:59;2.00;2.00;1.00
23240;PMS7003;11789;53.482;9.862;2023-04-01T22:36:28;2.33;2.00;1.00
23240;PMS7003;11789;53.482;9.862;2023-04-01T22:39:20;3.67;2.00;2.00
23240;PMS7003;11789;53.482;9.862;2023-04-01T22:52:50;2.00;2.00;1.67
23240;PMS7003;11789;53.482;9.862;2023-04-01T22:55:28;1.00;1.00;1.00
23240;PMS7003;11789;53.482;9.862;2023-04-01T22:58:02;2.00;2.00;2.00
23240;PMS7003;11789;53.482;9.862;2023-04-01T23:03:11;3.00;1.00;1.00
23240;PMS7003;11789;53.482;9.862;2023-04-01T23:05:48;2.00;2.00;2.00
23240;PMS7003;11789;53.482;9.862;2023-04-01T23:11:26;1.67;1.67;1.00
23240;PMS7003;11789;53.482;9.862;2023-04-01T23:23:35;2.67;2.33;2.00
23240;PMS7003;11789;53.482;9.862;2023-04-01T23:25:53;2.00;2.00;1.00
23240;PMS7003;11789;53.482;9.862;2023-04-01T23:28:39;5.00;3.00;2.00
23240;PMS7003;11789;53.482;9.862;2023-04-01T23:31:28;2.00;2.00;1.00
23240;PMS7003;11789;53.482;9.862;2023-04-01T23:33:55;1.67;1.67;1.00
23240;PMS7003;11789;53.482;9.862;2023-04-01T23:36:23;3.00;1.00;1.00
23240;PMS7003;11789;53.482;9.862;2023-04-01T23:38:50;6.00;3.67;2.00
23240;PMS7003;11789;53.482;9.862;2023-04-01T23:41:23;2.00;1.00;1.00
23240;PMS7003;11789;53.482;9.862;2023-04-01T23:43:58;1.00;1.00;1.00
23240;PMS7003;11789;53.482;9.862;2023-04-01T23:46:28;1.33;1.33;1.00
23240;PMS7003;11789;53.482;9.862;2023-04-01T23:48:56;2.00;1.00;1.00
23240;PMS7003;11789;53.482;9.862;2023-04-01T23:51:24;5.00;2.67;2.00
23240;PMS7003;11789;53.482;9.862;2023-04-01T23:53:56;1.33;1.33;1.00
23240;PMS7003;11789;53.482;9.862;2023-04-01T23:56:46;3.00;1.33;1.00
23240;PMS7003;11789;53.482;9.862;2023-04-01T23:59:18;2.00;2.00;1.00
